createdAt,value
2018-10-06T04:00:58.434Z,0.00
2018-10-06T04:01:58.303Z,0.00
2018-10-06T04:03:50.972Z,0.00
2018-10-06T04:04:50.859Z,0.00
2018-10-06T04:06:44.066Z,0.00
2018-10-06T04:07:43.934Z,0.00
2018-10-06T04:09:36.597Z,0.00
2018-10-06T04:10:36.488Z,0.00
2018-10-06T04:12:29.172Z,0.00
2018-10-06T04:13:29.050Z,0.00
2018-10-06T04:15:21.719Z,0.00
2018-10-06T04:16:21.599Z,0.00
2018-10-06T04:18:14.293Z,0.00
2018-10-06T04:19:14.166Z,0.00
2018-10-06T04:21:06.858Z,0.00
2018-10-06T04:22:06.728Z,0.00
2018-10-06T04:23:59.400Z,0.00
2018-10-06T04:24:59.286Z,0.00
2018-10-06T04:26:51.983Z,0.00
2018-10-06T04:27:51.857Z,0.00
2018-10-06T04:29:44.539Z,0.00
2018-10-06T04:30:44.421Z,0.00
2018-10-06T04:32:37.106Z,0.00
2018-10-06T04:33:36.987Z,0.00
2018-10-06T04:35:29.659Z,0.00
2018-10-06T04:36:29.545Z,0.00
2018-10-06T04:38:22.232Z,0.00
2018-10-06T04:39:22.107Z,0.00
2018-10-06T04:41:14.770Z,0.00
2018-10-06T04:42:14.660Z,0.00
2018-10-06T04:44:07.360Z,0.00
2018-10-06T04:45:07.221Z,0.00
2018-10-06T04:46:59.888Z,0.00
2018-10-06T04:47:59.783Z,0.00
2018-10-06T04:49:52.475Z,0.00
2018-10-06T04:50:52.350Z,0.00
2018-10-06T04:52:45.034Z,0.00
2018-10-06T04:53:44.907Z,0.00
2018-10-06T04:55:37.565Z,0.00
2018-10-06T04:56:37.459Z,0.00
2018-10-06T04:58:30.143Z,0.00
2018-10-06T04:59:30.021Z,0.00
2018-10-06T05:01:22.687Z,0.00
2018-10-06T05:02:22.568Z,0.00
2018-10-06T05:04:15.299Z,0.00
2018-10-06T05:05:15.125Z,0.00
2018-10-06T05:07:08.300Z,0.00
2018-10-06T05:08:08.181Z,0.00
2018-10-06T05:10:00.872Z,0.00
2018-10-06T05:11:00.742Z,0.00
2018-10-06T05:12:53.420Z,0.00
2018-10-06T05:13:53.299Z,0.00
2018-10-06T05:15:45.965Z,0.00
2018-10-06T05:16:45.855Z,0.00
2018-10-06T05:18:38.542Z,0.00
2018-10-06T05:19:38.410Z,0.00
2018-10-06T05:21:31.088Z,0.00
2018-10-06T05:22:30.972Z,0.00
2018-10-06T05:24:23.710Z,0.00
2018-10-06T05:25:23.545Z,0.00
2018-10-06T05:27:16.702Z,0.00
2018-10-06T05:28:16.599Z,0.00
2018-10-06T05:30:09.273Z,5.63
2018-10-06T05:31:09.151Z,5.63
2018-10-06T05:33:01.839Z,5.63
2018-10-06T05:34:01.757Z,5.63
2018-10-06T05:35:54.377Z,11.25
2018-10-06T05:36:54.269Z,11.25
2018-10-06T05:38:46.943Z,11.25
2018-10-06T05:39:46.819Z,16.88
2018-10-06T05:41:39.492Z,16.88
2018-10-06T05:42:39.383Z,16.88
2018-10-06T05:44:32.072Z,22.50
2018-10-06T05:45:31.935Z,22.50
2018-10-06T05:47:24.608Z,28.13
2018-10-06T05:48:24.503Z,28.13
2018-10-06T05:50:17.189Z,33.75
2018-10-06T05:51:17.808Z,39.38
2018-10-06T05:53:09.740Z,39.38
2018-10-06T05:54:09.622Z,45.00
2018-10-06T05:56:02.285Z,45.00
2018-10-06T05:57:02.177Z,50.63
2018-10-06T05:58:54.912Z,56.25
2018-10-06T05:59:54.735Z,56.25
2018-10-06T06:01:47.405Z,61.88
2018-10-06T06:02:47.298Z,61.88
2018-10-06T06:04:39.980Z,67.50
2018-10-06T06:05:39.859Z,67.50
2018-10-06T06:07:33.025Z,73.13
2018-10-06T06:08:32.905Z,73.13
2018-10-06T06:10:25.590Z,78.75
2018-10-06T06:11:25.473Z,84.38
2018-10-06T06:13:18.146Z,84.38
2018-10-06T06:14:18.025Z,90.00
2018-10-06T06:16:10.688Z,95.63
2018-10-06T06:17:10.579Z,101.25
2018-10-06T06:19:03.262Z,101.25
2018-10-06T06:20:03.141Z,101.25
2018-10-06T06:21:55.812Z,106.88
2018-10-06T06:22:55.703Z,106.88
2018-10-06T06:24:48.381Z,112.50
2018-10-06T06:25:48.260Z,112.50
2018-10-06T06:27:40.927Z,118.13
2018-10-06T06:28:40.810Z,118.13
2018-10-06T06:30:34.039Z,118.13
2018-10-06T06:31:33.919Z,123.75
2018-10-06T06:33:26.597Z,129.38
2018-10-06T06:34:26.469Z,129.38
2018-10-06T06:36:19.623Z,135.00
2018-10-06T06:37:19.524Z,140.63
2018-10-06T06:39:12.204Z,140.63
2018-10-06T06:40:12.077Z,146.25
2018-10-06T06:42:04.748Z,146.25
2018-10-06T06:43:04.642Z,146.25
2018-10-06T06:44:57.334Z,151.88
2018-10-06T06:45:57.201Z,151.88
2018-10-06T06:47:49.872Z,157.50
2018-10-06T06:48:49.788Z,157.50
2018-10-06T06:50:42.451Z,157.50
2018-10-06T06:51:42.328Z,163.13
2018-10-06T06:53:35.018Z,163.13
2018-10-06T06:54:34.892Z,168.75
2018-10-06T06:56:27.556Z,168.75
2018-10-06T06:57:27.446Z,174.38
2018-10-06T06:59:20.142Z,174.38
2018-10-06T07:00:20.003Z,180.00
2018-10-06T07:02:12.677Z,180.00
2018-10-06T07:03:12.565Z,185.63
2018-10-06T07:05:05.254Z,185.63
2018-10-06T07:06:05.124Z,185.63
2018-10-06T07:07:57.788Z,191.25
2018-10-06T07:08:57.688Z,191.25
2018-10-06T07:10:50.369Z,196.88
2018-10-06T07:11:50.242Z,196.88
2018-10-06T07:13:42.921Z,202.50
2018-10-06T07:14:42.806Z,208.13
2018-10-06T07:16:36.038Z,213.75
2018-10-06T07:17:35.907Z,219.38
2018-10-06T07:19:28.589Z,225.00
2018-10-06T07:20:28.461Z,225.00
2018-10-06T07:22:21.133Z,230.63
2018-10-06T07:23:21.028Z,230.63
2018-10-06T07:25:13.727Z,230.63
2018-10-06T07:26:13.586Z,230.63
2018-10-06T07:28:06.779Z,236.25
2018-10-06T07:29:06.658Z,236.25
2018-10-06T07:30:59.841Z,236.25
2018-10-06T07:31:59.713Z,236.25
2018-10-06T07:33:52.413Z,236.25
2018-10-06T07:34:52.296Z,236.25
2018-10-06T07:36:44.985Z,241.88
2018-10-06T07:37:44.854Z,241.88
2018-10-06T07:39:37.535Z,247.50
2018-10-06T07:40:37.426Z,247.50
2018-10-06T07:42:30.118Z,247.50
2018-10-06T07:43:30.092Z,247.50
2018-10-06T07:45:22.667Z,247.50
2018-10-06T07:46:22.567Z,247.50
2018-10-06T07:48:15.238Z,253.13
2018-10-06T07:49:15.120Z,253.13
2018-10-06T07:51:07.811Z,253.13
2018-10-06T07:52:07.684Z,253.13
2018-10-06T07:54:00.358Z,253.13
2018-10-06T07:55:00.249Z,253.13
2018-10-06T07:56:53.116Z,253.13
2018-10-06T07:57:52.821Z,253.13
2018-10-06T07:59:46.022Z,253.13
2018-10-06T08:00:45.912Z,253.13
2018-10-06T08:02:38.596Z,258.75
2018-10-06T08:03:38.470Z,258.75
2018-10-06T08:05:31.168Z,258.75
2018-10-06T08:06:31.108Z,258.75
2018-10-06T08:08:23.721Z,258.75
2018-10-06T08:09:23.607Z,258.75
2018-10-06T08:11:16.289Z,258.75
2018-10-06T08:12:16.172Z,258.75
2018-10-06T08:14:08.846Z,264.38
2018-10-06T08:15:08.745Z,264.38
2018-10-06T08:17:01.428Z,264.38
2018-10-06T08:18:01.307Z,264.38
2018-10-06T08:19:54.015Z,264.38
2018-10-06T08:20:53.910Z,264.38
2018-10-06T08:22:46.552Z,264.38
2018-10-06T08:23:46.426Z,264.38
2018-10-06T08:25:39.109Z,264.38
2018-10-06T08:26:39.003Z,264.38
2018-10-06T08:28:31.691Z,264.38
2018-10-06T08:29:31.624Z,264.38
2018-10-06T08:31:24.274Z,264.38
2018-10-06T08:32:24.205Z,264.38
2018-10-06T08:34:16.813Z,264.38
2018-10-06T08:35:16.711Z,264.38
2018-10-06T08:37:09.406Z,270.00
2018-10-06T08:38:09.283Z,270.00
2018-10-06T08:40:01.964Z,270.00
2018-10-06T08:41:01.854Z,270.00
2018-10-06T08:42:54.565Z,270.00
2018-10-06T08:43:54.429Z,270.00
2018-10-06T08:45:47.145Z,270.00
2018-10-06T08:46:47.033Z,270.00
2018-10-06T08:48:39.723Z,275.63
2018-10-06T08:49:39.646Z,275.63
2018-10-06T08:51:32.291Z,275.63
2018-10-06T08:52:32.167Z,281.25
2018-10-06T08:54:24.846Z,281.25
2018-10-06T08:55:24.736Z,281.25
2018-10-06T08:57:17.438Z,281.25
2018-10-06T08:58:17.309Z,286.88
2018-10-06T09:00:09.987Z,286.88
2018-10-06T09:01:09.900Z,286.88
2018-10-06T09:03:02.637Z,292.50
2018-10-06T09:04:02.448Z,292.50
2018-10-06T09:05:55.133Z,292.50
2018-10-06T09:06:55.023Z,292.50
2018-10-06T09:08:47.716Z,292.50
2018-10-06T09:09:47.590Z,292.50
2018-10-06T09:11:40.277Z,292.50
2018-10-06T09:12:40.178Z,292.50
2018-10-06T09:14:32.859Z,292.50
2018-10-06T09:15:32.745Z,292.50
2018-10-06T09:17:25.439Z,292.50
2018-10-06T09:18:25.322Z,292.50
2018-10-06T09:20:17.996Z,286.88
2018-10-06T09:21:17.892Z,286.88
2018-10-06T09:23:10.603Z,275.63
2018-10-06T09:24:10.475Z,275.63
2018-10-06T09:26:03.162Z,275.63
2018-10-06T09:27:03.054Z,281.25
2018-10-06T09:28:55.776Z,281.25
2018-10-06T09:29:55.707Z,281.25
2018-10-06T09:31:48.338Z,281.25
2018-10-06T09:32:48.225Z,281.25
2018-10-06T09:34:41.014Z,281.25
2018-10-06T09:35:40.801Z,281.25
2018-10-06T09:37:34.041Z,281.25
2018-10-06T09:38:33.941Z,281.25
2018-10-06T09:40:26.594Z,281.25
2018-10-06T09:41:26.495Z,281.25
2018-10-06T09:43:19.278Z,281.25
2018-10-06T09:44:19.070Z,281.25
2018-10-06T09:46:11.750Z,281.25
2018-10-06T09:47:11.648Z,281.25
2018-10-06T09:49:04.350Z,281.25
2018-10-06T09:50:04.221Z,281.25
2018-10-06T09:51:56.913Z,281.25
2018-10-06T09:52:56.787Z,281.25
2018-10-06T09:54:49.608Z,281.25
2018-10-06T09:55:49.369Z,281.25
2018-10-06T09:57:42.089Z,281.25
2018-10-06T09:58:41.952Z,281.25
2018-10-06T10:00:34.635Z,281.25
2018-10-06T10:01:34.591Z,281.25
2018-10-06T10:03:27.252Z,281.25
2018-10-06T10:04:27.109Z,275.63
2018-10-06T10:06:19.792Z,275.63
2018-10-06T10:07:19.687Z,275.63
2018-10-06T10:09:12.452Z,275.63
2018-10-06T10:10:12.332Z,275.63
2018-10-06T10:12:04.966Z,275.63
2018-10-06T10:13:04.885Z,275.63
2018-10-06T10:14:57.697Z,281.25
2018-10-06T10:15:57.446Z,275.63
2018-10-06T10:17:50.304Z,281.25
2018-10-06T10:18:49.997Z,275.63
2018-10-06T10:20:42.691Z,275.63
2018-10-06T10:21:42.632Z,275.63
2018-10-06T10:23:35.284Z,275.63
2018-10-06T10:24:35.163Z,275.63
2018-10-06T10:26:27.878Z,258.75
2018-10-06T10:27:27.745Z,270.00
2018-10-06T10:29:20.535Z,281.25
2018-10-06T10:30:20.331Z,286.88
2018-10-06T10:32:13.004Z,292.50
2018-10-06T10:33:12.899Z,298.13
2018-10-06T10:35:05.621Z,298.13
2018-10-06T10:36:05.477Z,303.75
2018-10-06T10:37:58.169Z,303.75
2018-10-06T10:38:58.066Z,303.75
2018-10-06T10:40:50.756Z,298.13
2018-10-06T10:41:50.659Z,292.50
2018-10-06T10:43:43.357Z,292.50
2018-10-06T10:44:43.237Z,292.50
2018-10-06T10:46:35.910Z,292.50
2018-10-06T10:47:35.828Z,292.50
2018-10-06T10:49:28.636Z,286.88
2018-10-06T10:50:28.392Z,292.50
2018-10-06T10:52:21.078Z,292.50
2018-10-06T10:53:21.058Z,298.13
2018-10-06T10:55:13.670Z,292.50
2018-10-06T10:56:13.549Z,292.50
2018-10-06T10:58:06.258Z,298.13
2018-10-06T10:59:06.142Z,298.13
2018-10-06T11:00:58.869Z,298.13
2018-10-06T11:01:58.719Z,303.75
2018-10-06T11:03:51.939Z,303.75
2018-10-06T11:04:51.866Z,309.38
2018-10-06T11:06:44.501Z,303.75
2018-10-06T11:07:44.380Z,303.75
2018-10-06T11:09:37.077Z,303.75
2018-10-06T11:10:36.991Z,303.75
2018-10-06T11:12:29.652Z,303.75
2018-10-06T11:13:29.587Z,298.13
2018-10-06T11:15:22.238Z,298.13
2018-10-06T11:16:22.128Z,303.75
2018-10-06T11:18:14.798Z,298.13
2018-10-06T11:21:45.928Z,309.38
2018-10-06T11:22:45.810Z,303.75
2018-10-06T11:24:38.630Z,320.63
2018-10-06T11:25:38.379Z,320.63
2018-10-06T11:27:31.069Z,326.25
2018-10-06T11:28:30.969Z,331.88
2018-10-06T11:30:23.823Z,331.88
2018-10-06T11:31:23.555Z,326.25
2018-10-06T11:33:16.236Z,326.25
2018-10-06T11:34:16.140Z,326.25
2018-10-06T11:36:08.839Z,331.88
2018-10-06T11:37:08.746Z,337.50
2018-10-06T11:39:01.450Z,337.50
2018-10-06T11:40:01.336Z,337.50
2018-10-06T11:41:54.015Z,331.88
2018-10-06T11:42:53.920Z,331.88
2018-10-06T11:44:46.625Z,337.50
2018-10-06T11:45:46.504Z,337.50
2018-10-06T11:47:39.186Z,343.13
2018-10-06T11:48:39.096Z,343.13
2018-10-06T11:50:31.791Z,354.38
2018-10-06T11:51:31.663Z,348.75
2018-10-06T11:53:24.359Z,337.50
2018-10-06T11:54:24.252Z,337.50
2018-10-06T11:56:16.960Z,331.88
2018-10-06T11:57:16.846Z,326.25
2018-10-06T11:59:09.534Z,320.63
2018-10-06T12:00:09.522Z,320.63
2018-10-06T12:02:02.131Z,331.88
2018-10-06T12:03:02.018Z,331.88
2018-10-06T12:04:54.731Z,343.13
2018-10-06T12:05:54.674Z,343.13
2018-10-06T12:07:47.310Z,354.38
2018-10-06T12:08:47.188Z,348.75
2018-10-06T12:10:39.970Z,365.63
2018-10-06T12:11:39.882Z,365.63
2018-10-06T12:13:33.068Z,365.63
2018-10-06T12:14:32.969Z,365.63
2018-10-06T12:16:25.678Z,360.00
2018-10-06T12:17:25.557Z,360.00
2018-10-06T12:19:18.248Z,354.38
2018-10-06T12:20:18.194Z,348.75
2018-10-06T12:22:10.886Z,354.38
2018-10-06T12:23:10.765Z,348.75
2018-10-06T12:25:03.454Z,337.50
2018-10-06T12:26:03.352Z,337.50
2018-10-06T12:27:56.057Z,337.50
2018-10-06T12:28:55.945Z,343.13
2018-10-06T12:30:48.652Z,337.50
2018-10-06T12:31:48.531Z,343.13
2018-10-06T12:33:41.226Z,331.88
2018-10-06T12:34:41.142Z,337.50
2018-10-06T12:36:33.843Z,348.75
2018-10-06T12:37:33.721Z,343.13
2018-10-06T12:39:26.417Z,343.13
2018-10-06T12:40:26.318Z,343.13
2018-10-06T12:42:19.038Z,343.13
2018-10-06T12:43:18.912Z,348.75
2018-10-06T12:45:11.610Z,354.38
2018-10-06T12:46:11.500Z,354.38
2018-10-06T12:48:04.203Z,365.63
2018-10-06T12:49:04.081Z,365.63
2018-10-06T12:50:56.785Z,365.63
2018-10-06T12:51:56.666Z,365.63
2018-10-06T12:53:49.360Z,360.00
2018-10-06T12:54:49.253Z,360.00
2018-10-06T12:56:41.966Z,354.38
2018-10-06T12:57:41.841Z,354.38
2018-10-06T12:59:34.540Z,348.75
2018-10-06T13:00:34.442Z,343.13
2018-10-06T13:02:27.146Z,337.50
2018-10-06T13:03:27.030Z,337.50
2018-10-06T13:05:19.712Z,331.88
2018-10-06T13:06:19.618Z,331.88
2018-10-06T13:08:12.322Z,337.50
2018-10-06T13:09:12.195Z,343.13
2018-10-06T13:11:04.916Z,331.88
2018-10-06T13:12:04.805Z,337.50
2018-10-06T13:13:57.481Z,337.50
2018-10-06T13:14:57.372Z,331.88
2018-10-06T13:16:50.090Z,331.88
2018-10-06T13:17:49.965Z,331.88
2018-10-06T13:19:42.663Z,320.63
2018-10-06T13:20:42.558Z,326.25
2018-10-06T13:22:35.272Z,320.63
2018-10-06T13:23:35.148Z,320.63
2018-10-06T13:25:27.834Z,331.88
2018-10-06T13:26:27.732Z,331.88
2018-10-06T13:28:20.436Z,326.25
2018-10-06T13:29:20.324Z,326.25
2018-10-06T13:31:13.029Z,320.63
2018-10-06T13:32:12.913Z,326.25
2018-10-06T13:34:05.603Z,326.25
2018-10-06T13:35:05.507Z,331.88
2018-10-06T13:36:58.206Z,331.88
2018-10-06T13:37:58.094Z,326.25
2018-10-06T13:39:50.788Z,326.25
2018-10-06T13:40:50.684Z,320.63
2018-10-06T13:42:43.398Z,326.25
2018-10-06T13:43:43.287Z,331.88
2018-10-06T13:45:35.968Z,320.63
2018-10-06T13:46:35.893Z,326.25
2018-10-06T13:48:28.569Z,315.00
2018-10-06T13:49:28.459Z,315.00
2018-10-06T13:51:21.135Z,303.75
2018-10-06T13:52:21.040Z,303.75
2018-10-06T13:54:13.749Z,303.75
2018-10-06T13:55:13.637Z,309.38
2018-10-06T13:57:06.341Z,309.38
2018-10-06T13:58:06.288Z,303.75
2018-10-06T13:59:58.909Z,303.75
2018-10-06T14:00:58.812Z,303.75
2018-10-06T14:02:51.506Z,292.50
2018-10-06T14:03:51.454Z,292.50
2018-10-06T14:05:44.085Z,281.25
2018-10-06T14:06:43.974Z,275.63
2018-10-06T14:08:36.686Z,275.63
2018-10-06T14:09:36.566Z,270.00
2018-10-06T14:11:29.251Z,264.38
2018-10-06T14:12:29.149Z,264.38
2018-10-06T14:14:21.873Z,264.38
2018-10-06T14:15:21.764Z,258.75
2018-10-06T14:17:14.470Z,253.13
2018-10-06T14:18:14.344Z,253.13
2018-10-06T14:20:07.033Z,253.13
2018-10-06T14:21:06.958Z,253.13
2018-10-06T14:22:59.658Z,258.75
2018-10-06T14:23:59.516Z,258.75
2018-10-06T14:25:52.211Z,264.38
2018-10-06T14:26:52.114Z,264.38
2018-10-06T14:28:44.833Z,264.38
2018-10-06T14:29:44.694Z,258.75
2018-10-06T14:31:37.380Z,253.13
2018-10-06T14:32:37.320Z,253.13
2018-10-06T14:34:29.989Z,253.13
2018-10-06T14:35:29.877Z,247.50
2018-10-06T14:37:23.077Z,247.50
2018-10-06T14:38:22.960Z,241.88
2018-10-06T14:40:15.654Z,241.88
2018-10-06T14:41:15.565Z,241.88
2018-10-06T14:43:08.261Z,241.88
2018-10-06T14:44:08.148Z,241.88
2018-10-06T14:46:00.826Z,236.25
2018-10-06T14:47:00.786Z,236.25
2018-10-06T14:48:53.523Z,230.63
2018-10-06T14:49:53.379Z,230.63
2018-10-06T14:51:45.997Z,230.63
2018-10-06T14:52:45.896Z,230.63
2018-10-06T14:54:38.598Z,230.63
2018-10-06T14:55:38.486Z,230.63
2018-10-06T14:57:31.210Z,219.38
2018-10-06T14:58:31.087Z,219.38
2018-10-06T15:00:23.766Z,225.00
2018-10-06T15:01:23.671Z,219.38
2018-10-06T15:03:16.375Z,219.38
2018-10-06T15:04:16.326Z,219.38
2018-10-06T15:06:09.108Z,208.13
2018-10-06T15:07:08.842Z,213.75
2018-10-06T15:09:01.545Z,219.38
2018-10-06T15:10:01.428Z,225.00
2018-10-06T15:11:54.122Z,236.25
2018-10-06T15:12:54.014Z,241.88
2018-10-06T15:14:46.730Z,230.63
2018-10-06T15:15:46.653Z,225.00
2018-10-06T15:17:39.300Z,230.63
2018-10-06T15:18:39.199Z,213.75
2018-10-06T15:20:31.913Z,219.38
2018-10-06T15:21:31.875Z,225.00
2018-10-06T15:23:24.492Z,213.75
2018-10-06T15:24:24.377Z,208.13
2018-10-06T15:26:17.065Z,202.50
2018-10-06T15:27:16.961Z,202.50
2018-10-06T15:29:09.675Z,196.88
2018-10-06T15:30:09.556Z,191.25
2018-10-06T15:32:02.249Z,191.25
2018-10-06T15:33:02.144Z,191.25
2018-10-06T15:34:54.843Z,191.25
2018-10-06T15:35:54.730Z,191.25
2018-10-06T15:37:47.461Z,185.63
2018-10-06T15:38:47.315Z,185.63
2018-10-06T15:40:40.017Z,180.00
2018-10-06T15:41:39.908Z,180.00
2018-10-06T15:43:32.608Z,168.75
2018-10-06T15:44:32.492Z,168.75
2018-10-06T15:46:25.178Z,163.13
2018-10-06T15:47:25.076Z,163.13
2018-10-06T15:49:17.779Z,163.13
2018-10-06T15:50:17.663Z,163.13
2018-10-06T15:52:10.342Z,151.88
2018-10-06T15:53:10.243Z,140.63
2018-10-06T15:55:02.948Z,151.88
2018-10-06T15:56:02.830Z,140.63
2018-10-06T15:57:55.521Z,146.25
2018-10-06T15:58:55.419Z,146.25
2018-10-06T16:00:48.119Z,146.25
2018-10-06T16:01:47.998Z,151.88
2018-10-06T16:03:40.717Z,140.63
2018-10-06T16:04:40.594Z,140.63
2018-10-06T16:06:33.283Z,140.63
2018-10-06T16:07:33.158Z,151.88
2018-10-06T16:09:25.860Z,135.00
2018-10-06T16:10:25.744Z,135.00
2018-10-06T16:12:18.483Z,129.38
2018-10-06T16:13:18.322Z,129.38
2018-10-06T16:15:11.024Z,112.50
2018-10-06T16:16:10.921Z,106.88
2018-10-06T16:18:03.595Z,106.88
2018-10-06T16:19:03.494Z,101.25
2018-10-06T16:20:56.193Z,95.63
2018-10-06T16:21:56.083Z,95.63
2018-10-06T16:23:48.758Z,90.00
2018-10-06T16:24:48.658Z,90.00
2018-10-06T16:26:41.380Z,78.75
2018-10-06T16:27:41.244Z,78.75
2018-10-06T16:29:33.951Z,73.13
2018-10-06T16:30:33.865Z,67.50
2018-10-06T16:32:26.526Z,61.88
2018-10-06T16:33:26.440Z,61.88
2018-10-06T16:35:19.121Z,56.25
2018-10-06T16:36:19.002Z,50.63
2018-10-06T16:38:12.181Z,45.00
2018-10-06T16:39:12.074Z,45.00
2018-10-06T16:41:04.783Z,39.38
2018-10-06T16:42:04.658Z,39.38
2018-10-06T16:43:57.342Z,33.75
2018-10-06T16:44:57.243Z,33.75
2018-10-06T16:46:49.933Z,28.13
2018-10-06T16:47:49.817Z,22.50
2018-10-06T16:49:42.527Z,22.50
2018-10-06T16:50:42.403Z,22.50
2018-10-06T16:52:35.085Z,16.88
2018-10-06T16:53:34.988Z,16.88
2018-10-06T16:55:27.679Z,16.88
2018-10-06T16:56:27.560Z,11.25
2018-10-06T16:58:20.257Z,11.25
2018-10-06T16:59:20.149Z,5.63
2018-10-06T17:01:12.846Z,5.63
2018-10-06T17:02:12.735Z,5.63
2018-10-06T17:04:05.402Z,5.63
2018-10-06T17:05:05.300Z,0.00
2018-10-06T17:06:58.004Z,0.00
2018-10-06T17:07:57.887Z,0.00
2018-10-06T17:09:50.568Z,0.00
2018-10-06T17:10:50.467Z,0.00
2018-10-06T17:12:43.225Z,0.00
2018-10-06T17:13:43.044Z,0.00
2018-10-06T17:15:35.731Z,0.00
2018-10-06T17:16:35.627Z,0.00
2018-10-06T17:18:28.359Z,0.00
2018-10-06T17:19:28.213Z,0.00
2018-10-06T17:21:20.914Z,0.00
2018-10-06T17:22:20.792Z,0.00
2018-10-06T17:24:13.553Z,0.00
2018-10-06T17:25:13.452Z,0.00
2018-10-06T17:27:06.074Z,0.00
2018-10-06T17:28:05.977Z,0.00
2018-10-06T17:29:58.633Z,0.00
2018-10-06T17:30:58.568Z,0.00
2018-10-06T17:32:51.223Z,0.00
2018-10-06T17:33:51.102Z,0.00
2018-10-06T17:35:43.779Z,0.00
2018-10-06T17:36:43.680Z,0.00
2018-10-06T17:38:36.379Z,0.00
2018-10-06T17:39:36.248Z,0.00
2018-10-06T17:41:28.934Z,0.00
2018-10-06T17:42:28.841Z,0.00
2018-10-06T17:44:21.546Z,0.00
2018-10-06T17:45:21.409Z,0.00
2018-10-06T17:47:14.099Z,0.00
2018-10-06T17:48:13.981Z,0.00
2018-10-06T17:50:06.874Z,0.00
2018-10-06T17:51:06.557Z,0.00
2018-10-06T17:52:59.259Z,0.00
2018-10-06T17:53:59.133Z,0.00
2018-10-06T17:55:51.818Z,0.00
2018-10-06T17:56:51.719Z,0.00
2018-10-06T17:58:44.489Z,0.00
2018-10-06T17:59:44.314Z,0.00
2018-10-06T18:01:37.004Z,0.00
2018-10-06T18:02:36.896Z,0.00
2018-10-06T18:04:30.002Z,0.00
2018-10-06T18:05:29.465Z,0.00
2018-10-06T18:07:22.167Z,0.00
2018-10-06T18:08:22.150Z,0.00
2018-10-06T18:10:14.906Z,0.00
2018-10-06T18:11:15.106Z,0.00
2018-10-06T18:13:07.330Z,0.00
2018-10-06T18:14:07.201Z,0.00
2018-10-06T18:15:59.906Z,0.00
2018-10-06T18:16:59.799Z,0.00
2018-10-06T18:18:52.497Z,0.00
2018-10-06T18:19:52.380Z,0.00
2018-10-06T18:21:45.065Z,0.00
2018-10-06T18:22:44.970Z,0.00
2018-10-06T18:24:37.760Z,0.00
2018-10-06T18:25:37.531Z,0.00
2018-10-06T18:27:30.230Z,0.00
2018-10-06T18:28:30.104Z,0.00
2018-10-06T18:30:22.781Z,0.00
2018-10-06T18:31:22.678Z,0.00
2018-10-06T18:33:15.925Z,0.00
2018-10-06T18:34:15.285Z,0.00
2018-10-06T18:36:07.999Z,0.00
2018-10-06T18:37:07.905Z,0.00
2018-10-06T18:39:00.573Z,0.00
2018-10-06T18:40:00.454Z,0.00
2018-10-06T18:41:53.159Z,0.00
2018-10-06T18:42:53.193Z,0.00
2018-10-06T18:44:45.909Z,0.00
2018-10-06T18:45:45.767Z,0.00
2018-10-06T18:47:38.444Z,0.00
2018-10-06T18:48:38.740Z,0.00
2018-10-06T18:50:31.028Z,0.00
2018-10-06T18:51:30.913Z,0.00
2018-10-06T18:53:23.609Z,0.00
2018-10-06T18:54:23.485Z,0.00
2018-10-06T18:56:17.156Z,0.00
2018-10-06T18:57:17.054Z,0.00
2018-10-06T18:59:09.874Z,0.00
2018-10-06T19:00:09.762Z,0.00
2018-10-06T19:02:03.224Z,0.00
2018-10-06T19:03:02.966Z,0.00
2018-10-06T19:04:55.545Z,0.00
2018-10-06T19:05:55.426Z,0.00
2018-10-06T19:07:48.106Z,0.00
2018-10-06T19:08:47.997Z,0.00
2018-10-06T19:10:40.692Z,0.00
2018-10-06T19:11:40.568Z,0.00
2018-10-06T19:13:33.260Z,0.00
2018-10-06T19:14:33.146Z,0.00
2018-10-06T19:16:25.907Z,0.00
2018-10-06T19:17:25.739Z,0.00
2018-10-06T19:19:19.071Z,0.00
2018-10-06T19:20:18.342Z,0.00
2018-10-06T19:22:11.015Z,0.00
2018-10-06T19:23:10.899Z,0.00
2018-10-06T19:25:03.870Z,0.00
2018-10-06T19:26:03.943Z,0.00
2018-10-06T19:27:56.422Z,0.00
2018-10-06T19:28:56.390Z,0.00
2018-10-06T19:30:49.043Z,0.00
2018-10-06T19:31:48.902Z,0.00
2018-10-06T19:33:41.602Z,0.00
2018-10-06T19:34:41.474Z,0.00
2018-10-06T19:36:34.146Z,0.00
2018-10-06T19:37:34.045Z,0.00
2018-10-06T19:39:26.755Z,0.00
2018-10-06T19:40:26.636Z,0.00
2018-10-06T19:42:19.311Z,0.00
2018-10-06T19:43:19.423Z,0.00
2018-10-06T19:45:11.902Z,0.00
2018-10-06T19:46:11.782Z,0.00
2018-10-06T19:48:04.463Z,0.00
2018-10-06T19:49:04.350Z,0.00
2018-10-06T19:50:57.051Z,0.00
2018-10-06T19:51:56.920Z,0.00
2018-10-06T19:53:50.599Z,0.00
2018-10-06T19:54:50.496Z,0.00
2018-10-06T19:56:43.199Z,0.00
2018-10-06T19:57:43.073Z,0.00
2018-10-06T19:59:35.769Z,0.00
2018-10-06T20:00:35.649Z,0.00
2018-10-06T20:02:28.332Z,0.00
2018-10-06T20:03:28.221Z,0.00
2018-10-06T20:05:20.911Z,0.00
2018-10-06T20:06:20.789Z,0.00
2018-10-06T20:08:13.471Z,0.00
2018-10-06T20:09:13.881Z,0.00
2018-10-06T20:11:06.129Z,0.00
2018-10-06T20:12:06.027Z,0.00
2018-10-06T20:13:58.677Z,0.00
2018-10-06T20:14:58.579Z,0.00
2018-10-06T20:16:51.367Z,0.00
2018-10-06T20:17:51.249Z,0.00
2018-10-06T20:19:44.456Z,0.00
2018-10-06T20:20:44.316Z,0.00
2018-10-06T20:22:36.993Z,0.00
2018-10-06T20:23:36.886Z,0.00
2018-10-06T20:25:29.590Z,0.00
2018-10-06T20:26:29.523Z,0.00
2018-10-06T20:28:22.147Z,0.00
2018-10-06T20:29:22.069Z,0.00
2018-10-06T20:31:14.853Z,0.00
2018-10-06T20:32:15.051Z,0.00
2018-10-06T20:34:07.412Z,0.00
2018-10-06T20:35:07.308Z,0.00
2018-10-06T20:36:59.999Z,0.00
2018-10-06T20:37:59.877Z,0.00
2018-10-06T20:39:52.564Z,0.00
2018-10-06T20:40:52.454Z,0.00
2018-10-06T20:42:45.135Z,0.00
2018-10-06T20:43:45.027Z,0.00
2018-10-06T20:45:37.725Z,0.00
2018-10-06T20:46:37.599Z,0.00
2018-10-06T20:48:30.278Z,0.00
2018-10-06T20:49:30.178Z,0.00
2018-10-06T20:51:22.871Z,0.00
2018-10-06T20:52:22.745Z,0.00
2018-10-06T20:54:15.418Z,0.00
2018-10-06T20:55:15.312Z,0.00
2018-10-06T20:57:08.015Z,0.00
2018-10-06T20:58:07.887Z,0.00
2018-10-06T21:00:00.576Z,0.00
2018-10-06T21:01:00.457Z,0.00
2018-10-06T21:02:53.129Z,0.00
2018-10-06T21:03:53.024Z,0.00
2018-10-06T21:05:45.715Z,0.00
2018-10-06T21:06:45.609Z,0.00
2018-10-06T21:08:38.279Z,0.00
2018-10-06T21:09:38.170Z,0.00
2018-10-06T21:11:30.870Z,0.00
2018-10-06T21:12:30.744Z,0.00
2018-10-06T21:14:23.421Z,0.00
2018-10-06T21:15:23.517Z,0.00
2018-10-06T21:17:16.011Z,0.00
2018-10-06T21:18:15.899Z,0.00
2018-10-06T21:20:08.648Z,0.00
2018-10-06T21:21:08.505Z,0.00
2018-10-06T21:23:01.193Z,0.00
2018-10-06T21:24:01.142Z,0.00
2018-10-06T21:25:53.786Z,0.00
2018-10-06T21:26:53.813Z,0.00
2018-10-06T21:28:46.525Z,0.00
2018-10-06T21:29:46.471Z,0.00
2018-10-06T21:31:39.005Z,0.00
2018-10-06T21:32:39.746Z,0.00
2018-10-06T21:34:31.559Z,0.00
2018-10-06T21:35:31.490Z,0.00
2018-10-06T21:37:24.162Z,0.00
2018-10-06T21:38:24.034Z,0.00
2018-10-06T21:40:16.713Z,0.00
2018-10-06T21:41:16.606Z,0.00
2018-10-06T21:43:09.326Z,0.00
2018-10-06T21:44:09.181Z,0.00
2018-10-06T21:46:01.878Z,0.00
2018-10-06T21:47:01.760Z,0.00
2018-10-06T21:48:54.429Z,0.00
2018-10-06T21:49:54.327Z,0.00
2018-10-06T21:51:47.020Z,0.00
2018-10-06T21:52:46.902Z,0.00
2018-10-06T21:54:39.747Z,0.00
2018-10-06T21:55:39.609Z,0.00
2018-10-06T21:57:32.193Z,0.00
2018-10-06T21:58:32.070Z,0.00
